Time;durP1;ratioP1;P1;durP2;ratioP2;P2;SDS_P1;SDS_P2;PMS_P1;PMS_P2;Temp;Humidity;BMP_temperature;BMP_pressure;BME280_temperature;BME280_humidity;BME280_pressure;Samples;Min_cycle;Max_cycle;Signal;HPM_P1;HPM_P2
2023/07/25 00:01:38;;;;;;;;;2.00;2.00;;;;;21.27;62.25;100106.66;4958838;28;45505;-71
2023/07/25 00:04:03;;;;;;;;;2.00;2.00;;;;;21.25;62.34;100121.00;4959372;28;45323;-71
2023/07/25 00:06:30;;;;;;;;;3.00;1.67;;;;;21.15;63.24;100121.47;4958815;28;45399;-71
2023/07/25 00:08:55;;;;;;;;;2.00;2.00;;;;;20.92;63.47;100096.03;4958185;28;45576;-69
2023/07/25 00:11:21;;;;;;;;;1.00;1.00;;;;;20.90;63.82;100107.69;4958821;28;45370;-69
2023/07/25 00:13:48;;;;;;;;;3.00;2.00;;;;;20.97;63.70;100125.06;4959195;28;45308;-70
2023/07/25 00:16:20;;;;;;;;;2.00;2.00;;;;;20.93;63.52;100105.75;4959625;28;45523;-71
2023/07/25 00:18:45;;;;;;;;;3.00;1.67;;;;;21.09;63.20;100127.09;4956904;28;47357;-68
2023/07/25 00:21:11;;;;;;;;;3.67;2.00;;;;;21.11;64.33;100137.69;4958967;28;45384;-69
2023/07/25 00:23:36;;;;;;;;;2.00;2.00;;;;;20.86;65.33;100122.97;4959663;28;45479;-68
2023/07/25 00:26:02;;;;;;;;;3.33;2.00;;;;;20.88;64.88;100122.88;4959824;28;45380;-68
2023/07/25 00:28:27;;;;;;;;;4.00;2.00;;;;;20.98;65.16;100120.66;4958020;28;46497;-68
2023/07/25 00:30:53;;;;;;;;;2.33;1.67;;;;;20.87;65.69;100113.19;4958114;28;45455;-69
2023/07/25 00:33:18;;;;;;;;;3.00;3.00;;;;;20.87;66.05;100130.00;4958128;28;45356;-71
2023/07/25 00:35:52;;;;;;;;;1.67;1.67;;;;;20.84;65.77;100137.31;4958622;28;45333;-70
2023/07/25 00:38:17;;;;;;;;;2.00;2.00;;;;;20.92;65.71;100135.09;4957663;28;46255;-69
2023/07/25 00:40:42;;;;;;;;;2.33;2.33;;;;;21.00;65.11;100130.28;4957682;28;45592;-69
2023/07/25 00:43:08;;;;;;;;;3.00;2.00;;;;;21.06;64.79;100131.75;4958308;28;45474;-69
2023/07/25 00:45:34;;;;;;;;;2.33;2.00;;;;;21.09;64.40;100119.13;4957734;28;45466;-70
2023/07/25 00:47:59;;;;;;;;;5.33;3.00;;;;;20.94;66.74;100101.28;4957678;28;46075;-69
2023/07/25 00:50:25;;;;;;;;;4.00;3.00;;;;;20.84;67.73;100114.22;4956911;28;45613;-70
2023/07/25 00:52:51;;;;;;;;;3.33;2.67;;;;;20.67;67.72;100100.91;4957559;28;45383;-70
2023/07/25 00:55:16;;;;;;;;;2.00;2.00;;;;;20.64;67.83;100082.41;4957629;28;45536;-69
2023/07/25 00:57:42;;;;;;;;;2.33;2.33;;;;;20.82;67.68;100097.44;4957479;28;45538;-69
2023/07/25 01:00:08;;;;;;;;;4.67;3.33;;;;;20.82;67.82;100094.78;4954277;28;45521;-69
2023/07/25 01:02:34;;;;;;;;;2.00;2.00;;;;;20.64;68.99;100107.19;4957342;28;45480;-69
2023/07/25 01:04:59;;;;;;;;;3.00;3.00;;;;;20.51;68.46;100093.63;4957950;28;45412;-70
2023/07/25 01:07:25;;;;;;;;;2.00;2.00;;;;;20.58;68.81;100110.19;4956086;28;46751;-69
2023/07/25 01:09:50;;;;;;;;;3.67;2.67;;;;;20.53;68.72;100090.91;4959047;28;45398;-70
2023/07/25 01:12:16;;;;;;;;;2.67;2.00;;;;;20.67;68.09;100107.06;4958541;28;45530;-68
2023/07/25 01:14:42;;;;;;;;;2.67;2.67;;;;;20.66;68.23;100091.16;4957611;28;45373;-69
2023/07/25 01:17:13;;;;;;;;;2.67;2.67;;;;;20.79;67.56;100104.75;4957427;28;45317;-69
2023/07/25 01:19:42;;;;;;;;;4.33;2.67;;;;;20.58;67.55;100080.06;4958496;28;45471;-69
2023/07/25 01:22:11;;;;;;;;;4.33;4.00;;;;;20.53;67.41;100099.72;4958848;28;45372;-70
2023/07/25 01:24:42;;;;;;;;;3.67;3.00;;;;;20.50;68.19;100097.25;4961253;28;45300;-69
2023/07/25 01:27:08;;;;;;;;;2.33;2.33;;;;;20.41;69.09;100094.16;4961180;28;45518;-70
2023/07/25 01:29:34;;;;;;;;;3.33;3.00;;;;;20.29;69.05;100071.69;4960722;28;45475;-70
2023/07/25 01:31:59;;;;;;;;;2.33;2.33;;;;;20.37;69.17;100093.44;4960347;28;45329;-70
2023/07/25 01:34:25;;;;;;;;;2.67;2.00;;;;;20.36;69.26;100080.22;4961057;28;45364;-70
2023/07/25 01:36:50;;;;;;;;;1.67;1.67;;;;;20.53;69.30;100091.75;4960546;28;46168;-70
2023/07/25 01:39:16;;;;;;;;;4.33;2.67;;;;;20.36;69.34;100062.47;4960823;28;45413;-72
2023/07/25 01:41:43;;;;;;;;;2.33;2.00;;;;;20.46;68.56;100077.03;4961185;28;45349;-69
2023/07/25 01:44:09;;;;;;;;;4.00;3.00;;;;;20.49;69.05;100079.53;4961277;28;45355;-70
2023/07/25 01:46:35;;;;;;;;;3.33;2.33;;;;;20.41;69.46;100070.22;4960557;28;46068;-70
2023/07/25 01:49:00;;;;;;;;;4.00;2.00;;;;;20.16;70.58;100057.25;4960485;28;45450;-69
2023/07/25 01:51:26;;;;;;;;;2.67;2.67;;;;;20.18;70.04;100064.22;4960409;28;45459;-68
2023/07/25 01:53:53;;;;;;;;;3.33;3.33;;;;;20.18;70.12;100066.03;4960275;28;45497;-69
2023/07/25 01:56:20;;;;;;;;;3.33;3.00;;;;;20.27;70.53;100069.09;4960170;28;45387;-68
2023/07/25 01:58:45;;;;;;;;;1.00;1.00;;;;;20.22;70.12;100057.81;4960343;28;45365;-68
2023/07/25 02:01:11;;;;;;;;;3.33;2.00;;;;;20.33;69.71;100076.78;4960899;28;45789;-69
2023/07/25 02:03:36;;;;;;;;;2.00;2.00;;;;;20.46;69.03;100065.53;4960717;28;45388;-68
2023/07/25 02:06:03;;;;;;;;;3.00;1.00;;;;;20.50;69.39;100062.66;4961161;28;45467;-68
2023/07/25 02:08:29;;;;;;;;;2.00;2.00;;;;;20.29;69.65;100045.09;4960061;28;45499;-68
2023/07/25 02:10:54;;;;;;;;;2.33;2.00;;;;;20.40;69.64;100064.03;4959914;28;45436;-68
2023/07/25 02:13:21;;;;;;;;;3.00;1.33;;;;;20.46;69.30;100069.06;4961261;28;45363;-69
2023/07/25 02:15:51;;;;;;;;;2.00;2.00;;;;;20.46;68.92;100053.09;4962206;28;45445;-68
2023/07/25 02:18:16;;;;;;;;;1.33;1.33;;;;;20.63;68.54;100065.59;4959690;28;45504;-69
2023/07/25 02:20:42;;;;;;;;;4.00;2.00;;;;;20.70;67.91;100066.13;4961761;28;45372;-69
2023/07/25 02:23:09;;;;;;;;;4.00;2.00;;;;;20.74;67.44;100051.75;4961446;28;45262;-69
2023/07/25 02:25:34;;;;;;;;;6.00;4.00;;;;;20.77;67.19;100056.91;4964053;28;45332;-68
2023/07/25 02:28:01;;;;;;;;;2.67;2.67;;;;;20.70;67.20;100032.41;4962560;28;45408;-68
2023/07/25 02:30:26;;;;;;;;;6.00;3.00;;;;;20.83;67.04;100050.41;4962483;28;45420;-70
2023/07/25 02:32:52;;;;;;;;;3.00;3.00;;;;;20.83;67.90;100050.41;4959723;28;45478;-71
2023/07/25 02:35:18;;;;;;;;;4.00;3.67;;;;;20.78;68.08;100050.63;4959499;28;46641;-70
2023/07/25 02:37:43;;;;;;;;;4.00;3.00;;;;;20.75;67.20;100041.00;4965118;28;45399;-69
2023/07/25 02:40:09;;;;;;;;;3.00;3.00;;;;;20.79;66.86;100035.53;4968101;28;45227;-70
2023/07/25 02:42:35;;;;;;;;;3.00;3.00;;;;;20.73;66.75;100026.06;4973232;28;45482;-69
2023/07/25 02:45:01;;;;;;;;;4.67;3.67;;;;;20.83;66.27;100037.94;4971126;28;45332;-70
2023/07/25 02:47:26;;;;;;;;;3.67;3.00;;;;;20.84;66.44;100046.81;4959856;28;45211;-70
2023/07/25 02:49:52;;;;;;;;;6.67;4.33;;;;;20.81;66.40;100036.31;4960861;28;45301;-70
2023/07/25 02:52:18;;;;;;;;;7.00;4.67;;;;;20.81;66.02;100037.19;4961263;28;45424;-69
2023/07/25 02:54:44;;;;;;;;;9.00;6.67;;;;;20.82;66.25;100027.41;4958626;28;46373;-70
2023/07/25 02:57:09;;;;;;;;;11.33;6.00;;;;;20.85;65.92;100035.22;4959505;28;45450;-69
2023/07/25 02:59:35;;;;;;;;;6.00;6.00;;;;;20.79;65.68;100011.59;4958595;28;45490;-70
2023/07/25 03:02:00;;;;;;;;;8.67;4.33;;;;;20.86;65.66;100027.16;4959309;28;45278;-70
2023/07/25 03:04:26;;;;;;;;;4.67;4.00;;;;;20.87;65.28;100033.34;4960600;28;46256;-69
2023/07/25 03:06:51;;;;;;;;;3.00;3.00;;;;;20.88;65.44;100033.28;4960833;28;45452;-68
2023/07/25 03:09:17;;;;;;;;;3.00;3.00;;;;;20.86;65.45;100024.50;4960430;28;45817;-69
2023/07/25 03:11:43;;;;;;;;;3.67;3.00;;;;;20.91;65.33;100033.09;4959274;28;45324;-69
2023/07/25 03:14:08;;;;;;;;;4.00;4.00;;;;;20.92;65.19;100036.63;4959693;28;45947;-70
2023/07/25 03:16:37;;;;;;;;;5.33;4.00;;;;;20.91;65.15;100037.56;4959369;28;45414;-71
2023/07/25 03:19:03;;;;;;;;;4.33;4.33;;;;;20.92;65.28;100042.78;4958388;28;45503;-70
2023/07/25 03:21:28;;;;;;;;;4.67;3.67;;;;;20.91;65.12;100046.41;4959342;28;45509;-69
2023/07/25 03:23:54;;;;;;;;;4.33;4.00;;;;;20.86;65.12;100044.94;4959173;28;45470;-69
2023/07/25 03:26:20;;;;;;;;;4.00;4.00;;;;;20.86;65.05;100047.59;4958798;28;45555;-69
2023/07/25 03:28:45;;;;;;;;;3.00;3.00;;;;;20.84;64.86;100053.00;4960372;28;45515;-69
2023/07/25 03:31:11;;;;;;;;;4.00;3.00;;;;;20.86;64.77;100050.25;4958060;28;45455;-69
2023/07/25 03:33:36;;;;;;;;;4.00;3.33;;;;;20.89;64.88;100060.75;4958929;28;45341;-70
2023/07/25 03:36:02;;;;;;;;;3.67;3.67;;;;;20.85;64.48;100053.84;4960349;28;45348;-70
2023/07/25 03:38:28;;;;;;;;;4.33;4.33;;;;;20.87;64.33;100063.47;4959005;28;45462;-69
2023/07/25 03:40:53;;;;;;;;;4.00;3.33;;;;;20.79;64.10;100048.84;4960638;28;45327;-69
2023/07/25 03:43:20;;;;;;;;;4.67;4.00;;;;;20.81;64.14;100050.50;4957973;28;46386;-68
2023/07/25 03:45:46;;;;;;;;;3.00;3.00;;;;;20.77;63.56;100048.06;4958906;28;45408;-69
2023/07/25 03:48:12;;;;;;;;;3.00;3.00;;;;;20.60;63.67;100030.31;4957836;28;45422;-70
2023/07/25 03:50:37;;;;;;;;;4.00;4.00;;;;;20.69;63.67;100036.00;4958989;28;45277;-69
2023/07/25 03:53:04;;;;;;;;;4.00;2.67;;;;;20.71;63.32;100050.06;4959207;28;45515;-69
2023/07/25 03:55:30;;;;;;;;;2.67;2.67;;;;;20.67;63.97;100051.19;4958155;28;45467;-69
2023/07/25 03:57:55;;;;;;;;;3.33;3.33;;;;;20.69;63.74;100056.41;4958371;28;45557;-68
2023/07/25 04:00:21;;;;;;;;;3.33;2.33;;;;;20.76;63.68;100068.47;4956510;28;45294;-68
2023/07/25 04:02:46;;;;;;;;;1.67;1.67;;;;;20.77;63.49;100070.22;4958742;28;45423;-71
2023/07/25 04:05:12;;;;;;;;;3.00;2.67;;;;;20.78;63.10;100079.06;4958397;28;45641;-70
2023/07/25 04:07:47;;;;;;;;;3.00;3.00;;;;;20.85;63.28;100085.78;5085234;27;46685;-70
2023/07/25 04:10:12;;;;;;;;;2.00;2.00;;;;;20.85;63.50;100081.31;5073687;27;45294;-69
2023/07/25 04:12:38;;;;;;;;;3.67;3.33;;;;;20.84;63.59;100084.06;5073435;28;45421;-68
2023/07/25 04:15:04;;;;;;;;;4.00;3.00;;;;;20.84;64.48;100090.25;5073852;27;45289;-69
2023/07/25 04:17:29;;;;;;;;;4.00;4.00;;;;;20.84;64.23;100094.72;5073277;28;45375;-69
2023/07/25 04:19:55;;;;;;;;;8.00;5.67;;;;;20.83;64.43;100095.63;5073661;27;45454;-70
2023/07/25 04:22:21;;;;;;;;;4.33;4.33;;;;;20.72;64.72;100083.75;5073990;28;45570;-69
2023/07/25 04:24:47;;;;;;;;;6.67;4.00;;;;;20.60;65.32;100063.09;5074804;27;45338;-72
2023/07/25 04:27:12;;;;;;;;;3.67;3.67;;;;;20.79;64.85;100088.78;5074529;27;45498;-69
2023/07/25 04:29:38;;;;;;;;;2.00;2.00;;;;;20.79;65.27;100088.78;5071911;28;45326;-69
2023/07/25 04:32:04;;;;;;;;;2.00;2.00;;;;;20.82;65.10;100088.59;5073272;28;45390;-70
2023/07/25 04:34:29;;;;;;;;;4.67;3.00;;;;;20.84;65.33;100090.25;5074324;27;45318;-72
2023/07/25 04:36:55;;;;;;;;;3.67;2.33;;;;;20.88;65.66;100096.25;5073753;28;46065;-69
2023/07/25 04:39:21;;;;;;;;;5.00;4.00;;;;;20.72;65.67;100086.41;5073506;27;45342;-70
2023/07/25 04:41:46;;;;;;;;;3.33;3.33;;;;;20.71;65.37;100086.47;5074126;28;45439;-69
2023/07/25 04:44:11;;;;;;;;;5.00;3.67;;;;;20.78;65.11;100105.66;5068089;27;45632;-68
2023/07/25 04:46:39;;;;;;;;;5.00;5.00;;;;;20.80;65.01;100106.44;5067464;28;45625;-69
2023/07/25 04:49:06;;;;;;;;;7.67;6.67;;;;;20.75;64.62;100099.56;5065857;27;45422;-68
2023/07/25 04:51:32;;;;;;;;;6.00;6.00;;;;;20.77;64.61;100101.28;5077611;27;45444;-69
2023/07/25 04:53:58;;;;;;;;;8.00;6.00;;;;;20.73;64.47;100108.56;5066869;27;45484;-69
2023/07/25 04:56:24;;;;;;;;;5.67;5.67;;;;;20.74;64.19;100108.47;5059289;28;45681;-69
2023/07/25 04:58:53;;;;;;;;;3.67;3.67;;;;;20.67;64.42;100093.75;5064171;27;45395;-71
2023/07/25 05:01:19;;;;;;;;;5.33;5.00;;;;;20.66;63.87;100113.31;5068180;27;45278;-69
2023/07/25 05:03:44;;;;;;;;;3.67;3.33;;;;;20.65;64.15;100116.91;5065587;28;45495;-68
2023/07/25 05:06:11;;;;;;;;;6.00;6.00;;;;;20.66;64.08;100123.94;5059004;28;45611;-70
2023/07/25 05:08:37;;;;;;;;;6.33;3.33;;;;;20.66;64.55;100123.94;5068973;27;45543;-68
2023/07/25 05:11:02;;;;;;;;;3.67;3.67;;;;;20.66;64.24;100129.28;5070314;28;45485;-69
2023/07/25 05:13:28;;;;;;;;;8.00;4.67;;;;;20.63;64.23;100121.44;5068709;28;45583;-69
2023/07/25 05:15:56;;;;;;;;;6.00;4.00;;;;;20.66;64.58;100126.63;5069302;28;45419;-69
2023/07/25 05:18:22;;;;;;;;;4.33;4.33;;;;;20.67;64.37;100125.69;5060099;28;45501;-68
2023/07/25 05:20:48;;;;;;;;;3.67;3.00;;;;;20.71;64.41;100131.72;5058191;28;45445;-69
2023/07/25 05:23:15;;;;;;;;;4.00;4.00;;;;;20.74;64.24;100132.44;5064238;28;45885;-68
2023/07/25 05:25:41;;;;;;;;;5.00;3.33;;;;;20.75;64.71;100131.47;5058997;28;45903;-69
2023/07/25 05:28:07;;;;;;;;;4.67;4.67;;;;;20.69;64.51;100122.94;5064747;28;45530;-70
2023/07/25 05:30:33;;;;;;;;;6.00;4.67;;;;;20.69;64.12;100118.50;5061056;28;45347;-68
2023/07/25 05:32:58;;;;;;;;;4.67;4.00;;;;;20.65;63.81;100108.94;5061344;28;45420;-69
2023/07/25 05:35:24;;;;;;;;;5.00;5.00;;;;;20.81;63.82;100140.09;5062190;27;48180;-67
2023/07/25 05:37:50;;;;;;;;;7.00;6.00;;;;;20.80;63.39;100130.41;5060626;28;45459;-69
2023/07/25 05:40:18;;;;;;;;;5.00;5.00;;;;;20.81;63.72;100134.78;5052708;28;45487;-71
2023/07/25 05:42:44;;;;;;;;;6.00;5.00;;;;;20.79;63.42;100140.19;5077106;27;45495;-69
2023/07/25 05:45:10;;;;;;;;;6.00;5.00;;;;;20.77;63.49;100136.75;5041239;28;45457;-67
2023/07/25 05:47:36;;;;;;;;;5.67;4.00;;;;;20.75;63.33;100141.28;5045626;28;45460;-69
2023/07/25 05:50:03;;;;;;;;;6.00;4.00;;;;;20.75;63.34;100143.94;5055581;28;46134;-69
2023/07/25 05:52:32;;;;;;;;;4.00;4.00;;;;;20.71;63.17;100137.03;5054325;28;45424;-67
2023/07/25 05:54:57;;;;;;;;;4.00;4.00;;;;;20.75;63.40;100141.28;5065468;28;46728;-68
2023/07/25 05:57:23;;;;;;;;;7.67;4.00;;;;;20.72;63.53;100138.78;5064023;28;45472;-69
2023/07/25 05:59:49;;;;;;;;;4.67;4.67;;;;;20.72;63.40;100142.28;5061131;27;45381;-69
2023/07/25 06:02:16;;;;;;;;;4.67;4.33;;;;;20.66;63.49;100136.41;5054722;28;45536;-68
2023/07/25 06:04:45;;;;;;;;;5.00;4.67;;;;;20.70;63.23;100152.16;5041128;28;46258;-68
2023/07/25 06:07:14;;;;;;;;;4.00;4.00;;;;;20.73;63.41;100164.44;5059655;28;45472;-69
2023/07/25 06:09:40;;;;;;;;;4.00;3.00;;;;;20.68;63.39;100151.34;5059503;28;45425;-69
2023/07/25 06:12:08;;;;;;;;;6.00;4.33;;;;;20.71;63.68;100166.31;5058432;28;45420;-71
2023/07/25 06:14:33;;;;;;;;;3.33;3.33;;;;;20.71;63.65;100171.63;5044338;28;45675;-73
2023/07/25 06:16:59;;;;;;;;;5.33;4.67;;;;;20.46;64.09;100142.69;5057646;28;45947;-70
2023/07/25 06:19:25;;;;;;;;;3.67;3.67;;;;;20.65;64.06;100156.84;5056029;28;45471;-70
2023/07/25 06:21:50;;;;;;;;;6.00;4.00;;;;;20.77;63.92;100181.13;5057701;28;45549;-73
2023/07/25 06:24:16;;;;;;;;;6.33;5.00;;;;;20.72;63.94;100163.56;5056206;28;46096;-72
2023/07/25 06:26:42;;;;;;;;;6.00;5.67;;;;;20.81;63.76;100174.69;5055402;28;45509;-74
2023/07/25 06:29:08;;;;;;;;;9.33;6.67;;;;;20.84;63.47;100180.75;5049685;28;45462;-70
2023/07/25 06:31:34;;;;;;;;;5.33;5.33;;;;;20.87;63.84;100185.91;5052166;28;45790;-70
2023/07/25 06:34:00;;;;;;;;;9.00;6.00;;;;;20.89;63.49;100181.38;5059459;28;45386;-70
2023/07/25 06:36:25;;;;;;;;;7.00;5.00;;;;;20.84;63.27;100167.44;5053261;28;45533;-70
2023/07/25 06:38:51;;;;;;;;;5.67;5.33;;;;;20.95;63.31;100190.84;5058706;28;45469;-71
2023/07/25 06:41:16;;;;;;;;;6.33;6.33;;;;;20.94;62.99;100189.13;5060596;28;45413;-69
2023/07/25 06:43:42;;;;;;;;;7.00;6.00;;;;;20.84;62.82;100178.09;5060754;28;45346;-70
2023/07/25 06:46:07;;;;;;;;;8.00;7.00;;;;;20.85;62.81;100181.59;5056566;28;45305;-71
2023/07/25 06:48:33;;;;;;;;;9.33;9.33;;;;;20.80;62.54;100180.97;5060387;28;46676;-69
2023/07/25 06:50:59;;;;;;;;;7.00;7.00;;;;;20.80;62.49;100203.13;5062114;28;45378;-70
2023/07/25 06:53:24;;;;;;;;;12.33;9.00;;;;;20.76;62.22;100206.84;5058291;28;46266;-72
2023/07/25 06:55:50;;;;;;;;;10.00;10.00;;;;;20.71;62.10;100209.75;5061425;28;45263;-72
2023/07/25 06:58:17;;;;;;;;;10.67;8.33;;;;;20.63;62.60;100200.41;5055398;28;45345;-70
2023/07/25 07:00:49;;;;;;;;;13.67;10.00;;;;;20.67;62.36;100220.63;5057901;28;45390;-73
2023/07/25 07:03:19;;;;;;;;;12.33;12.33;;;;;20.59;61.92;100234.28;5060381;28;45427;-70
2023/07/25 07:05:56;;;;;;;;;13.33;13.33;;;;;20.46;61.82;100235.78;5061138;28;45482;-70
2023/07/25 07:08:23;;;;;;;;;11.00;10.00;;;;;20.36;61.82;100237.13;5053177;28;45510;-71
2023/07/25 07:10:53;;;;;;;;;13.33;10.33;;;;;20.27;61.73;100236.63;5056195;28;45655;-71
2023/07/25 07:13:20;;;;;;;;;13.67;11.33;;;;;20.22;61.52;100249.28;5075638;27;45548;-73
2023/07/25 07:15:46;;;;;;;;;15.67;11.33;;;;;20.11;61.41;100246.22;5047629;28;45489;-71
2023/07/25 07:18:12;;;;;;;;;13.33;12.33;;;;;20.00;62.00;100221.94;5058892;28;45382;-71
2023/07/25 07:20:39;;;;;;;;;11.33;10.67;;;;;20.13;61.63;100255.88;5063151;28;45630;-73
2023/07/25 07:23:05;;;;;;;;;15.33;12.33;;;;;20.19;61.61;100256.50;5064768;27;45536;-69
2023/07/25 07:25:31;;;;;;;;;18.00;16.00;;;;;20.16;61.56;100260.19;5069655;28;45472;-71
2023/07/25 07:27:57;;;;;;;;;15.67;14.00;;;;;20.17;61.22;100271.66;5068779;28;45450;-71
2023/07/25 07:30:23;;;;;;;;;12.00;11.00;;;;;19.85;61.79;100242.94;5068780;27;45536;-70
2023/07/25 07:32:48;;;;;;;;;12.00;9.00;;;;;20.04;61.20;100274.88;5069092;27;45550;-69
2023/07/25 07:35:14;;;;;;;;;9.67;9.67;;;;;19.85;61.57;100260.69;5061129;28;45511;-70
2023/07/25 07:37:40;;;;;;;;;8.67;8.33;;;;;19.84;61.72;100291.72;5058410;28;45466;-72
2023/07/25 07:40:06;;;;;;;;;7.67;7.33;;;;;19.91;61.56;100303.81;5068362;27;45512;-70
2023/07/25 07:42:31;;;;;;;;;10.67;8.33;;;;;19.82;61.06;100293.56;5066361;28;46345;-71
2023/07/25 07:44:57;;;;;;;;;6.33;6.33;;;;;19.71;61.30;100290.50;5067483;28;45458;-72
2023/07/25 07:47:23;;;;;;;;;9.67;6.00;;;;;19.86;61.33;100303.16;5071811;28;45482;-71
2023/07/25 07:49:48;;;;;;;;;8.33;7.00;;;;;19.80;61.23;100292.78;5071577;28;45488;-71
2023/07/25 07:52:14;;;;;;;;;6.67;6.00;;;;;19.86;60.57;100316.44;5066416;28;45771;-71
2023/07/25 07:54:39;;;;;;;;;10.00;6.00;;;;;19.63;60.37;100276.66;5063208;28;45382;-70
2023/07/25 07:57:05;;;;;;;;;8.00;6.67;;;;;19.89;59.79;100331.38;5057767;28;45464;-69
2023/07/25 07:59:30;;;;;;;;;5.67;5.67;;;;;19.84;59.33;100328.06;5062056;28;45453;-71
2023/07/25 08:01:56;;;;;;;;;9.00;5.00;;;;;19.78;59.81;100341.59;5053747;28;45690;-70
2023/07/25 08:04:21;;;;;;;;;7.00;5.00;;;;;19.76;59.75;100340.81;5057056;28;45386;-71
2023/07/25 08:06:47;;;;;;;;;5.33;4.33;;;;;19.76;59.27;100330.16;5057919;28;45532;-70
2023/07/25 08:09:13;;;;;;;;;7.00;5.00;;;;;19.71;59.17;100333.03;5056017;28;45471;-70
2023/07/25 08:11:48;;;;;;;;;2.33;2.33;;;;;19.74;58.45;100345.31;5056130;28;45546;-71
2023/07/25 08:14:13;;;;;;;;;4.00;3.00;;;;;19.59;58.94;100320.22;5054685;28;45415;-71
2023/07/25 08:16:39;;;;;;;;;5.00;3.00;;;;;19.77;58.71;100355.84;5055454;28;45463;-72
2023/07/25 08:19:04;;;;;;;;;4.00;4.00;;;;;19.74;59.20;100362.09;5056259;28;45494;-70
2023/07/25 08:21:30;;;;;;;;;3.00;3.00;;;;;19.76;58.79;100362.91;5054628;28;46276;-71
2023/07/25 08:23:55;;;;;;;;;3.67;3.00;;;;;19.68;59.88;100335.81;5050626;28;45382;-72
2023/07/25 08:26:21;;;;;;;;;5.00;3.00;;;;;19.90;58.63;100365.84;5057138;28;45673;-73
2023/07/25 08:28:46;;;;;;;;;33.67;31.00;;;;;20.04;58.37;100372.38;5057877;28;45517;-72
2023/07/25 08:31:12;;;;;;;;;19.33;18.33;;;;;20.09;58.04;100367.72;5055885;28;46261;-73
2023/07/25 08:33:38;;;;;;;;;5.33;4.00;;;;;20.17;57.88;100373.59;5055902;28;46168;-71
2023/07/25 08:36:03;;;;;;;;;4.00;4.00;;;;;20.20;57.54;100373.44;5055802;28;45701;-72
2023/07/25 08:38:29;;;;;;;;;3.00;3.00;;;;;20.17;57.70;100386.88;5056191;28;45483;-72
2023/07/25 08:41:04;;;;;;;;;4.00;4.00;;;;;20.08;57.82;100390.78;5055415;28;45447;-70
2023/07/25 08:43:36;;;;;;;;;2.67;2.67;;;;;20.22;58.31;100387.53;5054128;28;45507;-70
2023/07/25 08:46:07;;;;;;;;;5.00;3.00;;;;;20.36;56.22;100383.41;5056746;28;45321;-71
2023/07/25 08:48:37;;;;;;;;;2.67;2.67;;;;;20.53;55.78;100407.47;5055510;28;45435;-71
2023/07/25 08:51:05;;;;;;;;;2.67;2.67;;;;;20.53;55.53;100376.41;5055679;28;46518;-71
2023/07/25 08:53:32;;;;;;;;;1.00;1.00;;;;;20.79;54.41;100403.69;5057549;28;45439;-72
2023/07/25 08:56:00;;;;;;;;;4.33;4.33;;;;;20.81;53.65;100400.94;5060438;28;45543;-71
2023/07/25 08:58:26;;;;;;;;;5.00;2.00;;;;;20.82;53.21;100413.31;5059096;28;45256;-71
2023/07/25 09:00:54;;;;;;;;;2.00;2.00;;;;;20.88;52.69;100435.19;5058843;28;46265;-72
2023/07/25 09:03:20;;;;;;;;;2.00;2.00;;;;;20.75;51.71;100450.84;5059683;28;45425;-72
2023/07/25 09:05:48;;;;;;;;;3.67;3.00;;;;;20.58;52.12;100441.91;5059113;28;45306;-72
2023/07/25 09:08:14;;;;;;;;;3.00;1.33;;;;;20.57;53.20;100462.28;5060851;28;45460;-71
2023/07/25 09:10:43;;;;;;;;;2.00;2.00;;;;;20.52;52.84;100451.84;5058592;28;45429;-71
2023/07/25 09:13:09;;;;;;;;;2.00;2.00;;;;;20.56;52.89;100465.03;5058632;28;45487;-70
2023/07/25 09:15:35;;;;;;;;;2.67;2.67;;;;;20.56;52.81;100462.38;5059169;28;45444;-70
2023/07/25 09:18:00;;;;;;;;;8.33;8.00;;;;;20.52;52.56;100449.19;5050960;28;45594;-69
2023/07/25 09:20:26;;;;;;;;;5.33;5.00;;;;;20.69;52.57;100474.19;5059378;28;45451;-71
2023/07/25 09:22:51;;;;;;;;;3.67;3.67;;;;;20.73;52.53;100478.47;5057964;28;45517;-70
2023/07/25 09:25:17;;;;;;;;;4.00;4.00;;;;;20.67;52.55;100462.78;5059227;28;45617;-72
2023/07/25 09:27:46;;;;;;;;;3.00;3.00;;;;;20.84;52.71;100489.50;5057644;28;45379;-69
2023/07/25 09:30:13;;;;;;;;;3.67;3.67;;;;;20.81;52.47;100483.44;5058747;28;45361;-71
2023/07/25 09:32:44;;;;;;;;;3.00;3.00;;;;;20.91;52.89;100492.75;5059311;28;45390;-70
2023/07/25 09:35:11;;;;;;;;;3.00;3.00;;;;;20.92;52.75;100500.66;5059406;28;45555;-67
2023/07/25 09:37:37;;;;;;;;;3.00;2.33;;;;;20.95;52.67;100497.88;5059213;28;45430;-72
2023/07/25 09:40:08;;;;;;;;;4.67;3.67;;;;;21.04;53.09;100509.91;5057167;28;47990;-69
2023/07/25 09:42:41;;;;;;;;;3.00;3.00;;;;;21.10;52.87;100504.31;5058703;28;45559;-69
2023/07/25 09:45:11;;;;;;;;;4.33;3.00;;;;;21.29;52.51;100514.13;5058835;28;45350;-70
2023/07/25 09:47:37;;;;;;;;;4.00;4.00;;;;;21.43;52.48;100518.81;5059148;28;45315;-70
2023/07/25 09:50:06;;;;;;;;;5.00;5.00;;;;;21.50;51.93;100513.16;5058504;28;45294;-69
2023/07/25 09:52:39;;;;;;;;;4.33;4.00;;;;;21.59;51.94;100527.81;5057139;28;45638;-70
2023/07/25 09:55:05;;;;;;;;;5.67;5.67;;;;;21.59;51.54;100528.72;5058454;28;45817;-70
2023/07/25 09:57:32;;;;;;;;;6.67;5.33;;;;;21.66;51.73;100534.59;5058859;28;45589;-72
2023/07/25 10:00:00;;;;;;;;;6.00;4.00;;;;;21.52;51.27;100505.06;5027535;28;45412;-71
2023/07/25 10:02:25;;;;;;;;;5.00;5.00;;;;;21.71;51.02;100540.59;5059723;28;45547;-70
2023/07/25 10:04:55;;;;;;;;;5.67;3.67;;;;;21.71;51.07;100545.03;5064579;28;45286;-71
2023/07/25 10:07:23;;;;;;;;;5.67;5.33;;;;;21.63;50.72;100533.91;5068347;28;45836;-71
2023/07/25 10:09:51;;;;;;;;;12.67;6.33;;;;;21.68;50.70;100546.06;5062185;28;45312;-69
2023/07/25 10:12:16;;;;;;;;;5.33;5.33;;;;;21.67;51.07;100540.81;5058138;28;45438;-70
2023/07/25 10:14:42;;;;;;;;;7.00;6.67;;;;;21.81;50.34;100543.69;5058460;28;45393;-69
2023/07/25 10:17:08;;;;;;;;;7.00;5.33;;;;;21.88;50.51;100542.47;5058462;28;45389;-71
2023/07/25 10:19:52;;;;;;;;;6.67;6.33;;;;;21.94;50.30;100554.63;5056277;28;46923;-70
2023/07/25 10:22:35;;;;;;;;;5.67;5.67;;;;;22.02;51.13;100547.13;5057922;28;45452;-70
2023/07/25 10:25:02;;;;;;;;;5.33;5.33;;;;;22.23;50.13;100545.22;5057746;28;45409;-69
2023/07/25 10:27:28;;;;;;;;;8.33;6.00;;;;;22.32;48.69;100539.44;5058307;28;45374;-70
2023/07/25 10:30:00;;;;;;;;;7.00;7.00;;;;;22.33;49.49;100525.16;5057839;28;45455;-71
2023/07/25 10:32:43;;;;;;;;;6.33;6.00;;;;;22.43;49.61;100525.56;5057950;28;45259;-72
2023/07/25 10:35:09;;;;;;;;;7.33;7.33;;;;;22.60;48.84;100522.03;5058615;28;45382;-71
2023/07/25 10:37:44;;;;;;;;;9.67;6.33;;;;;22.89;48.53;100533.84;5058476;28;45421;-69
2023/07/25 10:40:14;;;;;;;;;7.00;7.00;;;;;22.91;47.70;100523.09;5057645;28;46144;-70
2023/07/25 10:42:42;;;;;;;;;7.67;7.33;;;;;22.95;47.57;100522.00;5057313;28;45468;-69
2023/07/25 10:45:27;;;;;;;;;11.33;6.67;;;;;23.01;47.27;100519.88;5059573;28;45276;-71
2023/07/25 10:47:53;;;;;;;;;8.00;6.67;;;;;23.08;46.94;100533.78;5057654;28;45623;-71
2023/07/25 10:50:24;;;;;;;;;10.33;9.00;;;;;23.11;47.19;100543.44;5059197;27;46141;-69
2023/07/25 10:52:50;;;;;;;;;11.33;10.00;;;;;23.03;46.34;100547.38;5042568;28;45520;-71
2023/07/25 10:55:16;;;;;;;;;8.67;6.33;;;;;23.07;47.01;100540.94;5055657;28;45497;-72
2023/07/25 10:57:42;;;;;;;;;11.67;8.33;;;;;23.24;46.41;100553.38;5063652;28;45519;-70
2023/07/25 11:00:10;;;;;;;;;10.67;6.33;;;;;23.21;45.85;100542.88;5058185;28;46057;-73
2023/07/25 11:02:39;;;;;;;;;8.67;8.00;;;;;23.26;46.43;100562.19;5045627;28;45489;-71
2023/07/25 11:05:13;;;;;;;;;8.00;7.00;;;;;23.29;45.92;100561.16;5065779;28;45532;-70
2023/07/25 11:07:50;;;;;;;;;11.00;8.33;;;;;23.18;45.23;100544.81;5065540;28;45587;-72
2023/07/25 11:10:27;;;;;;;;;8.67;8.00;;;;;23.03;45.22;100559.88;5058082;28;46263;-68
2023/07/25 11:13:03;;;;;;;;;10.67;7.33;;;;;22.75;47.43;100553.25;5057030;28;45578;-72
2023/07/25 11:15:30;;;;;;;;;8.00;8.00;;;;;22.48;46.16;100522.66;5055603;28;45393;-70
2023/07/25 11:17:56;;;;;;;;;9.67;9.00;;;;;22.57;45.94;100562.22;5074080;27;45305;-70
2023/07/25 11:20:22;;;;;;;;;8.00;8.00;;;;;22.49;46.57;100569.75;5059881;28;45748;-71
2023/07/25 11:22:49;;;;;;;;;8.33;8.33;;;;;22.43;46.41;100573.59;5054210;28;45452;-71